Terminal Aerodrome Forecast
Issued by NWS

Home | Current Version | Previous Version | Text Only | Print | Product List | Glossary On
Versions: 1 2 3 4 5 6 7 8 9 10 11 12 13 14 15
000
FTUS42 KGSP 301728 AAB
TAFAND
TAF AMD
KAND 301728Z 3017/3118 27011G22KT P6SM FEW250
     FM302300 28007KT P6SM FEW200
     FM310600 29003KT P6SM FEW120
     FM311500 24007KT P6SM FEW120=

USA.gov is the U.S. government's official web portal to all federal, state and local government web resources and services.